Time;durP1;ratioP1;P1;durP2;ratioP2;P2;SDS_P1;SDS_P2;PMS_P1;PMS_P2;Temp;Humidity;BMP_temperature;BMP_pressure;BME280_temperature;BME280_humidity;BME280_pressure;Samples;Min_cycle;Max_cycle;Signal;HPM_P1;HPM_P2
2023/01/29 00:02:05;;;;;;;;;43.33;43.00;;;;;;;;5099717;28;8939;-78
2023/01/29 00:04:33;;;;;;;;;48.33;44.67;;;;;;;;5080086;28;8830;-79
2023/01/29 00:07:02;;;;;;;;;43.67;43.00;;;;;;;;5093543;28;8828;-79
2023/01/29 00:09:30;;;;;;;;;43.67;42.00;;;;;;;;5076816;28;8844;-79
2023/01/29 00:11:58;;;;;;;;;46.33;42.33;;;;;;;;5099057;27;8917;-79
2023/01/29 00:14:26;;;;;;;;;58.67;47.00;;;;;;;;5079321;28;8867;-79
2023/01/29 00:16:54;;;;;;;;;38.33;36.33;;;;;;;;5096886;27;8858;-78
2023/01/29 00:19:22;;;;;;;;;52.67;48.33;;;;;;;;5079316;28;8852;-78
2023/01/29 00:21:49;;;;;;;;;52.33;47.33;;;;;;;;5074383;28;8984;-78
2023/01/29 00:24:19;;;;;;;;;42.00;40.67;;;;;;;;5098448;28;8867;-78
2023/01/29 00:26:48;;;;;;;;;44.67;43.67;;;;;;;;5098153;28;8870;-78
2023/01/29 00:29:17;;;;;;;;;41.00;39.67;;;;;;;;5076829;27;8892;-79
2023/01/29 00:31:45;;;;;;;;;52.33;45.67;;;;;;;;5098572;27;8799;-78
2023/01/29 00:34:13;;;;;;;;;55.33;50.67;;;;;;;;5096028;28;8860;-78
2023/01/29 00:36:43;;;;;;;;;40.67;40.00;;;;;;;;5081056;28;8855;-78
2023/01/29 00:39:10;;;;;;;;;47.33;44.67;;;;;;;;5100114;28;8833;-78
2023/01/29 00:47:29;;;;;;;;;49.67;45.33;;;;;;;;5069595;28;9602;-79
2023/01/29 00:49:57;;;;;;;;;48.67;46.00;;;;;;;;5096624;28;8848;-78
2023/01/29 00:52:24;;;;;;;;;55.67;46.67;;;;;;;;5080746;28;8836;-78
2023/01/29 00:54:52;;;;;;;;;58.67;50.33;;;;;;;;5093530;27;8831;-78
2023/01/29 00:57:21;;;;;;;;;59.00;50.00;;;;;;;;5076257;28;8947;-78
2023/01/29 00:59:49;;;;;;;;;42.00;40.67;;;;;;;;5100995;28;8828;-78
2023/01/29 01:05:02;;;;;;;;;59.33;48.00;;;;;;;;5087142;27;8828;-78
2023/01/29 01:07:30;;;;;;;;;55.67;49.33;;;;;;;;5103650;27;8860;-77
2023/01/29 01:12:44;;;;;;;;;52.00;47.00;;;;;;;;5102321;27;8811;-78
2023/01/29 01:15:11;;;;;;;;;49.67;45.00;;;;;;;;5105848;27;8836;-78
2023/01/29 01:17:39;;;;;;;;;44.67;41.67;;;;;;;;5106041;27;8854;-78
2023/01/29 01:20:07;;;;;;;;;45.67;43.33;;;;;;;;5102949;27;8971;-78
2023/01/29 01:22:36;;;;;;;;;64.00;54.33;;;;;;;;5107489;27;8884;-78
2023/01/29 01:25:03;;;;;;;;;49.33;45.00;;;;;;;;5097981;28;8852;-78
2023/01/29 01:27:31;;;;;;;;;52.67;48.00;;;;;;;;5083787;28;8848;-78
2023/01/29 01:30:00;;;;;;;;;34.67;34.67;;;;;;;;5107164;27;8836;-78
2023/01/29 01:32:27;;;;;;;;;56.67;46.67;;;;;;;;5103093;28;8796;-80
2023/01/29 01:34:55;;;;;;;;;62.67;52.00;;;;;;;;5099615;28;8851;-78
2023/01/29 01:37:24;;;;;;;;;55.00;48.00;;;;;;;;5082522;28;8832;-78
2023/01/29 01:39:56;;;;;;;;;56.67;48.00;;;;;;;;5082206;28;8946;-78
2023/01/29 01:42:27;;;;;;;;;66.25;55.50;;;;;;;;5084835;28;8828;-79
2023/01/29 01:45:03;;;;;;;;;50.00;45.00;;;;;;;;5100620;28;8875;-80
2023/01/29 01:47:35;;;;;;;;;63.00;50.00;;;;;;;;5103173;28;8838;-79
2023/01/29 01:50:08;;;;;;;;;61.00;53.00;;;;;;;;5100145;28;8847;-79
2023/01/29 01:52:39;;;;;;;;;62.25;53.00;;;;;;;;5081738;28;8932;-78
2023/01/29 01:55:07;;;;;;;;;49.25;45.75;;;;;;;;5100621;28;8846;-78
2023/01/29 01:57:35;;;;;;;;;44.33;43.00;;;;;;;;5104841;28;8841;-79
2023/01/29 02:00:11;;;;;;;;;55.50;47.50;;;;;;;;5081645;28;8883;-78
2023/01/29 02:10:56;;;;;;;;;68.50;58.25;;;;;;;;5089521;28;8824;-77
2023/01/29 02:13:24;;;;;;;;;56.75;49.50;;;;;;;;5068379;28;8866;-78
2023/01/29 02:15:53;;;;;;;;;61.50;52.25;;;;;;;;5086477;28;9655;-78
2023/01/29 02:18:22;;;;;;;;;54.50;49.00;;;;;;;;5064616;28;8866;-78
2023/01/29 02:21:08;;;;;;;;;64.75;51.50;;;;;;;;5084560;28;8844;-78
2023/01/29 02:24:00;;;;;;;;;60.50;53.00;;;;;;;;5088570;28;8860;-78
2023/01/29 02:26:47;;;;;;;;;58.75;49.25;;;;;;;;5086569;28;8958;-78
2023/01/29 02:29:24;;;;;;;;;66.75;55.00;;;;;;;;5065061;28;8870;-78
2023/01/29 02:31:58;;;;;;;;;63.75;52.75;;;;;;;;5097105;27;8802;-78
2023/01/29 02:37:18;;;;;;;;;48.33;45.67;;;;;;;;5102198;28;8801;-78
2023/01/29 02:39:51;;;;;;;;;60.50;52.50;;;;;;;;5102558;28;8805;-78
2023/01/29 02:42:27;;;;;;;;;57.00;50.00;;;;;;;;5104393;27;8858;-78
2023/01/29 02:45:00;;;;;;;;;51.00;47.00;;;;;;;;5103759;27;8868;-78
2023/01/29 02:47:33;;;;;;;;;59.50;50.25;;;;;;;;5105405;27;8833;-78
2023/01/29 02:50:06;;;;;;;;;65.00;55.50;;;;;;;;5103530;28;8848;-78
2023/01/29 02:52:36;;;;;;;;;55.50;49.00;;;;;;;;5103629;28;8802;-78
2023/01/29 02:55:09;;;;;;;;;58.00;49.75;;;;;;;;5101191;28;8860;-78
2023/01/29 02:57:39;;;;;;;;;51.00;46.75;;;;;;;;5085199;28;8838;-78
2023/01/29 03:00:14;;;;;;;;;64.25;54.00;;;;;;;;5102557;27;8841;-78
2023/01/29 03:02:46;;;;;;;;;61.25;52.75;;;;;;;;5103309;27;8870;-78
2023/01/29 03:05:17;;;;;;;;;63.25;52.00;;;;;;;;5094443;28;8878;-78
2023/01/29 03:07:51;;;;;;;;;54.00;47.75;;;;;;;;5092176;28;9750;-78
2023/01/29 03:10:21;;;;;;;;;56.25;50.75;;;;;;;;5105061;27;8880;-78
2023/01/29 03:12:54;;;;;;;;;66.25;53.75;;;;;;;;5100105;27;8921;-78
2023/01/29 03:15:27;;;;;;;;;54.50;45.75;;;;;;;;5101027;28;8869;-78
2023/01/29 03:17:58;;;;;;;;;58.25;50.25;;;;;;;;5082153;28;8847;-78
2023/01/29 03:20:31;;;;;;;;;62.75;52.50;;;;;;;;5075195;28;8867;-80
2023/01/29 03:23:01;;;;;;;;;57.75;51.00;;;;;;;;5099146;28;8848;-78
2023/01/29 03:33:52;;;;;;;;;52.50;48.00;;;;;;;;5098588;28;8819;-78
2023/01/29 03:36:23;;;;;;;;;52.00;45.25;;;;;;;;5098900;28;8868;-77
2023/01/29 03:38:50;;;;;;;;;60.75;52.50;;;;;;;;5097656;28;8917;-78
2023/01/29 03:41:23;;;;;;;;;65.75;52.75;;;;;;;;5101761;27;8874;-78
2023/01/29 03:43:56;;;;;;;;;61.75;53.00;;;;;;;;5077117;28;8826;-78
2023/01/29 03:46:30;;;;;;;;;43.00;40.75;;;;;;;;5102588;27;8871;-78
2023/01/29 03:49:01;;;;;;;;;63.75;52.00;;;;;;;;5102742;28;8836;-78
2023/01/29 03:51:33;;;;;;;;;55.50;50.00;;;;;;;;5096546;28;8832;-78
2023/01/29 03:54:08;;;;;;;;;61.00;52.50;;;;;;;;5095675;28;8859;-78
2023/01/29 03:56:44;;;;;;;;;53.25;48.25;;;;;;;;5075487;27;8853;-78
2023/01/29 03:59:21;;;;;;;;;57.00;47.25;;;;;;;;5114071;27;8836;-78
2023/01/29 04:01:53;;;;;;;;;49.50;45.00;;;;;;;;5082868;28;8785;-77
2023/01/29 04:04:24;;;;;;;;;67.00;57.00;;;;;;;;5116276;27;8842;-78
2023/01/29 04:06:53;;;;;;;;;60.00;48.25;;;;;;;;5095848;28;8935;-78
2023/01/29 04:09:24;;;;;;;;;50.75;45.50;;;;;;;;5096395;28;8833;-77
2023/01/29 04:11:56;;;;;;;;;58.00;50.50;;;;;;;;5092573;28;8871;-78
2023/01/29 04:14:24;;;;;;;;;70.50;57.50;;;;;;;;5096310;27;8880;-78
2023/01/29 04:16:57;;;;;;;;;46.25;42.75;;;;;;;;5103335;27;8901;-78
2023/01/29 04:19:25;;;;;;;;;51.25;44.25;;;;;;;;5074387;28;8871;-78
2023/01/29 04:21:57;;;;;;;;;42.75;42.25;;;;;;;;5094415;28;8863;-77
2023/01/29 04:24:24;;;;;;;;;45.25;44.75;;;;;;;;5091933;28;8819;-77
2023/01/29 04:26:58;;;;;;;;;43.75;43.00;;;;;;;;5097010;28;8878;-77
2023/01/29 04:29:44;;;;;;;;;61.25;51.50;;;;;;;;5094680;28;8880;-77
2023/01/29 04:32:18;;;;;;;;;48.75;45.50;;;;;;;;5077608;28;8889;-78
2023/01/29 04:34:58;;;;;;;;;58.25;51.00;;;;;;;;5092403;28;8836;-77
2023/01/29 04:37:33;;;;;;;;;50.50;43.75;;;;;;;;5094348;28;8848;-78
2023/01/29 04:40:06;;;;;;;;;60.00;51.00;;;;;;;;5079190;28;8856;-78
2023/01/29 04:42:41;;;;;;;;;65.50;53.25;;;;;;;;5091103;28;8848;-78
2023/01/29 04:45:16;;;;;;;;;55.75;47.50;;;;;;;;5097596;28;8902;-78
2023/01/29 04:47:49;;;;;;;;;50.75;48.00;;;;;;;;5098630;27;8864;-78
2023/01/29 04:50:21;;;;;;;;;61.75;51.25;;;;;;;;5097229;28;8852;-78
2023/01/29 04:52:53;;;;;;;;;61.50;52.25;;;;;;;;5080502;28;8825;-78
2023/01/29 04:55:28;;;;;;;;;51.50;47.75;;;;;;;;5106973;27;8804;-78
2023/01/29 04:58:03;;;;;;;;;57.50;49.75;;;;;;;;5092404;28;8856;-79
2023/01/29 05:00:32;;;;;;;;;52.25;48.25;;;;;;;;5076931;28;8760;-78
2023/01/29 05:03:02;;;;;;;;;66.25;52.25;;;;;;;;5114757;27;8858;-78
2023/01/29 05:05:31;;;;;;;;;51.75;46.25;;;;;;;;5102386;27;8822;-79
2023/01/29 05:07:59;;;;;;;;;66.00;50.25;;;;;;;;5101304;28;8991;-78
2023/01/29 05:10:27;;;;;;;;;57.50;50.50;;;;;;;;5099283;28;8832;-78
2023/01/29 05:12:59;;;;;;;;;54.00;49.00;;;;;;;;5097760;28;8836;-78
2023/01/29 05:15:33;;;;;;;;;61.25;51.00;;;;;;;;5102728;28;8840;-78
2023/01/29 05:18:03;;;;;;;;;58.50;49.50;;;;;;;;5099742;28;8844;-78
2023/01/29 05:20:33;;;;;;;;;51.75;46.25;;;;;;;;5101903;28;8832;-78
2023/01/29 05:23:01;;;;;;;;;52.50;48.75;;;;;;;;5082659;28;8848;-78
2023/01/29 05:25:29;;;;;;;;;53.25;48.75;;;;;;;;5100387;28;8864;-79
2023/01/29 05:28:06;;;;;;;;;53.25;47.50;;;;;;;;5095303;28;8852;-78
2023/01/29 05:30:35;;;;;;;;;51.00;48.00;;;;;;;;5096620;27;8801;-78
2023/01/29 05:33:12;;;;;;;;;51.75;46.25;;;;;;;;5097817;27;8960;-79
2023/01/29 05:35:39;;;;;;;;;48.25;44.50;;;;;;;;5100463;28;8850;-78
2023/01/29 05:38:07;;;;;;;;;49.00;43.75;;;;;;;;5082942;28;8824;-79
2023/01/29 05:40:34;;;;;;;;;63.75;54.25;;;;;;;;5096982;28;8979;-78
2023/01/29 05:43:02;;;;;;;;;46.50;44.75;;;;;;;;5100339;27;8877;-79
2023/01/29 05:45:30;;;;;;;;;45.25;42.00;;;;;;;;5065143;27;8818;-78
2023/01/29 05:47:58;;;;;;;;;53.00;45.75;;;;;;;;5103633;27;8997;-78
2023/01/29 05:50:27;;;;;;;;;53.75;47.50;;;;;;;;5100208;27;8844;-79
2023/01/29 05:52:59;;;;;;;;;46.25;43.00;;;;;;;;5104168;28;8832;-79
2023/01/29 05:55:28;;;;;;;;;53.75;47.00;;;;;;;;5073877;27;8857;-78
2023/01/29 05:57:55;;;;;;;;;61.25;49.50;;;;;;;;5097946;28;8824;-79
2023/01/29 06:00:23;;;;;;;;;50.50;47.00;;;;;;;;5080979;28;8864;-78
2023/01/29 06:02:51;;;;;;;;;64.25;52.00;;;;;;;;5080099;28;8881;-79
2023/01/29 06:05:19;;;;;;;;;61.50;51.75;;;;;;;;5081662;28;8838;-78
2023/01/29 06:07:49;;;;;;;;;44.00;41.75;;;;;;;;5080207;28;8843;-77
2023/01/29 06:10:19;;;;;;;;;58.00;48.75;;;;;;;;5078404;28;8875;-77
2023/01/29 06:12:46;;;;;;;;;58.75;50.00;;;;;;;;5078670;28;8864;-78
2023/01/29 06:15:15;;;;;;;;;65.25;52.50;;;;;;;;5081449;28;8874;-82
2023/01/29 06:17:43;;;;;;;;;56.75;50.25;;;;;;;;5076133;28;8834;-78
2023/01/29 06:20:11;;;;;;;;;60.75;50.00;;;;;;;;5078627;28;9737;-77
2023/01/29 06:22:42;;;;;;;;;58.75;48.50;;;;;;;;5079395;28;8876;-78
2023/01/29 06:25:11;;;;;;;;;55.00;49.50;;;;;;;;5073909;28;8842;-78
2023/01/29 06:27:39;;;;;;;;;57.75;49.75;;;;;;;;5075694;28;8862;-78
2023/01/29 06:30:08;;;;;;;;;53.00;46.25;;;;;;;;5079812;28;8877;-78
2023/01/29 06:32:38;;;;;;;;;62.25;52.25;;;;;;;;5066053;28;8842;-79
2023/01/29 06:35:09;;;;;;;;;48.25;45.00;;;;;;;;5084909;28;8864;-79
2023/01/29 06:37:37;;;;;;;;;62.75;53.50;;;;;;;;5085094;28;9653;-78
2023/01/29 06:40:05;;;;;;;;;48.25;45.25;;;;;;;;5084504;28;8850;-78
2023/01/29 06:42:35;;;;;;;;;61.50;52.75;;;;;;;;5068319;28;8854;-79
2023/01/29 06:45:03;;;;;;;;;61.50;51.25;;;;;;;;5086666;28;8878;-79
2023/01/29 06:47:31;;;;;;;;;60.75;51.00;;;;;;;;5084584;28;8933;-78
2023/01/29 06:49:58;;;;;;;;;61.25;53.25;;;;;;;;5065008;28;8838;-79
2023/01/29 06:52:27;;;;;;;;;51.50;45.00;;;;;;;;5068485;28;9650;-78
2023/01/29 06:54:55;;;;;;;;;53.75;47.50;;;;;;;;5087559;28;9316;-78
2023/01/29 06:57:22;;;;;;;;;55.25;48.50;;;;;;;;5085106;28;9728;-78
2023/01/29 06:59:52;;;;;;;;;40.25;40.00;;;;;;;;5090337;28;8855;-78
2023/01/29 07:02:19;;;;;;;;;62.25;51.00;;;;;;;;5098975;27;8840;-78
2023/01/29 07:04:47;;;;;;;;;56.25;49.75;;;;;;;;5107486;27;8824;-78
2023/01/29 07:07:14;;;;;;;;;47.00;45.00;;;;;;;;5102057;27;8887;-78
2023/01/29 07:09:44;;;;;;;;;50.75;46.75;;;;;;;;5103618;27;8828;-80
2023/01/29 07:12:12;;;;;;;;;56.50;50.50;;;;;;;;5096420;27;8843;-73
2023/01/29 07:14:42;;;;;;;;;60.50;50.50;;;;;;;;5109908;27;8856;-73
2023/01/29 07:17:11;;;;;;;;;66.75;53.50;;;;;;;;5102381;27;8872;-73
2023/01/29 07:19:39;;;;;;;;;56.25;49.00;;;;;;;;5085244;28;8868;-76
2023/01/29 07:22:06;;;;;;;;;61.25;51.25;;;;;;;;5105376;27;8850;-76
2023/01/29 07:24:33;;;;;;;;;58.50;50.50;;;;;;;;5101338;27;8855;-74
2023/01/29 07:27:01;;;;;;;;;54.50;49.00;;;;;;;;5105005;27;8856;-74
2023/01/29 07:29:29;;;;;;;;;54.00;45.00;;;;;;;;5106453;27;8840;-75
2023/01/29 07:31:57;;;;;;;;;63.25;53.75;;;;;;;;5067221;28;8810;-74
2023/01/29 07:34:25;;;;;;;;;57.50;50.50;;;;;;;;5080925;28;8846;-75
2023/01/29 07:36:55;;;;;;;;;51.25;46.25;;;;;;;;5081754;28;8830;-74
2023/01/29 07:39:23;;;;;;;;;54.75;48.50;;;;;;;;5079546;28;8839;-74
2023/01/29 07:41:50;;;;;;;;;57.50;50.50;;;;;;;;5081907;28;8987;-74
2023/01/29 07:44:18;;;;;;;;;67.00;54.25;;;;;;;;5082845;28;8959;-76
2023/01/29 07:46:45;;;;;;;;;61.50;53.50;;;;;;;;5081943;28;9771;-75
2023/01/29 07:49:13;;;;;;;;;59.00;51.50;;;;;;;;5082086;28;9275;-73
2023/01/29 07:51:42;;;;;;;;;59.25;51.25;;;;;;;;5066277;28;8842;-73
2023/01/29 07:54:10;;;;;;;;;62.00;53.50;;;;;;;;5079646;28;8834;-72
2023/01/29 07:56:37;;;;;;;;;74.00;62.50;;;;;;;;5063855;28;8897;-73
2023/01/29 07:59:04;;;;;;;;;56.50;50.25;;;;;;;;5062041;28;8861;-70
2023/01/29 08:01:32;;;;;;;;;62.75;53.50;;;;;;;;5096102;27;8889;-73
2023/01/29 08:03:59;;;;;;;;;65.00;54.25;;;;;;;;5103648;27;8846;-74
2023/01/29 08:06:26;;;;;;;;;62.50;51.50;;;;;;;;5105822;27;8836;-74
2023/01/29 08:08:56;;;;;;;;;64.50;54.75;;;;;;;;5105854;27;8893;-74
2023/01/29 08:11:23;;;;;;;;;68.75;58.00;;;;;;;;5105685;27;8879;-74
2023/01/29 08:13:51;;;;;;;;;63.50;54.25;;;;;;;;5104033;27;8852;-74
2023/01/29 08:16:18;;;;;;;;;62.75;54.50;;;;;;;;5098608;28;9641;-73
2023/01/29 08:18:47;;;;;;;;;75.75;61.00;;;;;;;;5098990;27;8875;-72
2023/01/29 08:21:15;;;;;;;;;68.00;58.50;;;;;;;;5101283;27;8832;-71
2023/01/29 08:23:43;;;;;;;;;72.00;60.00;;;;;;;;5098347;28;8840;-71
2023/01/29 08:26:17;;;;;;;;;69.00;57.75;;;;;;;;5110161;27;8879;-70
2023/01/29 08:28:45;;;;;;;;;72.00;59.25;;;;;;;;5108240;27;8933;-71
2023/01/29 08:31:16;;;;;;;;;80.00;65.00;;;;;;;;5083545;28;8830;-71
2023/01/29 08:33:43;;;;;;;;;73.50;60.25;;;;;;;;5103050;27;8849;-72
2023/01/29 08:36:11;;;;;;;;;66.75;55.50;;;;;;;;5066965;28;8860;-72
2023/01/29 08:38:38;;;;;;;;;73.50;61.50;;;;;;;;5080956;27;8841;-73
2023/01/29 08:41:06;;;;;;;;;74.75;63.50;;;;;;;;5102691;27;8831;-72
2023/01/29 08:43:36;;;;;;;;;67.00;54.75;;;;;;;;5100042;27;8834;-72
2023/01/29 08:46:04;;;;;;;;;77.00;63.25;;;;;;;;5094107;27;8852;-73
2023/01/29 08:48:32;;;;;;;;;82.75;65.25;;;;;;;;5099225;28;8832;-72
2023/01/29 08:50:59;;;;;;;;;81.00;67.75;;;;;;;;5101544;27;8832;-72
2023/01/29 08:53:27;;;;;;;;;74.75;61.00;;;;;;;;5103797;27;8847;-72
2023/01/29 08:55:54;;;;;;;;;83.50;67.50;;;;;;;;5100478;28;8859;-73
2023/01/29 08:58:22;;;;;;;;;78.75;65.50;;;;;;;;5101226;27;8852;-74
2023/01/29 09:00:51;;;;;;;;;75.25;63.25;;;;;;;;5097569;28;8796;-72
2023/01/29 09:03:19;;;;;;;;;79.25;64.50;;;;;;;;5102067;27;8860;-71
2023/01/29 09:05:47;;;;;;;;;85.75;69.25;;;;;;;;5102805;28;8863;-71
2023/01/29 09:08:14;;;;;;;;;89.25;70.75;;;;;;;;5080276;28;8852;-71
2023/01/29 09:10:42;;;;;;;;;92.50;72.50;;;;;;;;5095390;27;8873;-71
2023/01/29 09:13:09;;;;;;;;;86.50;68.75;;;;;;;;5094835;28;8813;-71
2023/01/29 09:15:36;;;;;;;;;72.75;61.75;;;;;;;;5098573;27;8845;-73
2023/01/29 09:18:06;;;;;;;;;68.00;57.25;;;;;;;;5085115;27;8919;-72
2023/01/29 09:20:34;;;;;;;;;75.50;62.75;;;;;;;;5106130;27;8844;-73
2023/01/29 09:23:05;;;;;;;;;82.33;66.00;;;;;;;;5081502;28;8887;-73
2023/01/29 09:25:33;;;;;;;;;71.33;57.33;;;;;;;;5104416;27;8890;-72
2023/01/29 09:28:00;;;;;;;;;69.33;58.00;;;;;;;;5103309;27;9618;-72
2023/01/29 09:30:28;;;;;;;;;74.00;57.33;;;;;;;;5103723;27;8820;-72
2023/01/29 09:32:55;;;;;;;;;72.67;58.67;;;;;;;;5099833;27;8846;-72
2023/01/29 09:35:24;;;;;;;;;68.00;51.00;;;;;;;;5099571;27;8889;-73
2023/01/29 09:37:52;;;;;;;;;71.00;61.00;;;;;;;;5081257;28;8840;-72
2023/01/29 09:40:26;;;;;;;;;81.67;58.33;;;;;;;;5105213;27;8846;-72
2023/01/29 09:42:58;;;;;;;;;81.67;66.33;;;;;;;;5106671;27;9734;-73
2023/01/29 09:45:27;;;;;;;;;76.67;61.67;;;;;;;;5103270;27;8855;-75
2023/01/29 09:47:58;;;;;;;;;75.67;61.67;;;;;;;;5099932;27;8835;-72
2023/01/29 09:50:31;;;;;;;;;75.67;61.33;;;;;;;;5107164;27;8862;-73
2023/01/29 09:53:01;;;;;;;;;62.33;53.67;;;;;;;;5100957;27;8866;-73
2023/01/29 09:55:30;;;;;;;;;63.00;53.00;;;;;;;;5100400;27;8857;-71
2023/01/29 09:57:59;;;;;;;;;69.33;55.00;;;;;;;;5100055;27;8866;-73
2023/01/29 10:00:32;;;;;;;;;63.33;52.33;;;;;;;;5067125;27;8795;-74
2023/01/29 10:03:15;;;;;;;;;71.00;57.00;;;;;;;;5108826;27;8840;-70
2023/01/29 10:05:57;;;;;;;;;72.67;58.67;;;;;;;;5101837;27;8836;-71
2023/01/29 10:08:42;;;;;;;;;79.00;58.00;;;;;;;;5099079;27;8849;-72
2023/01/29 10:11:18;;;;;;;;;87.33;62.00;;;;;;;;5087273;27;8815;-72
2023/01/29 10:13:51;;;;;;;;;59.67;51.67;;;;;;;;5098774;27;8836;-72
2023/01/29 10:16:31;;;;;;;;;68.67;54.00;;;;;;;;5102239;27;8868;-72
2023/01/29 10:19:27;;;;;;;;;70.67;58.00;;;;;;;;5100006;28;8842;-72
2023/01/29 10:22:23;;;;;;;;;62.00;51.67;;;;;;;;5100447;28;8844;-73
2023/01/29 10:24:54;;;;;;;;;66.67;54.33;;;;;;;;5047327;28;8857;-72
2023/01/29 10:27:21;;;;;;;;;66.67;53.33;;;;;;;;5105372;27;8847;-74
2023/01/29 10:29:51;;;;;;;;;58.67;49.33;;;;;;;;5102035;27;8837;-72
2023/01/29 10:32:20;;;;;;;;;68.67;55.00;;;;;;;;5103422;27;8798;-72
2023/01/29 10:34:52;;;;;;;;;70.33;55.33;;;;;;;;5077475;28;8840;-72
2023/01/29 10:37:23;;;;;;;;;69.00;53.67;;;;;;;;5086356;28;9010;-71
2023/01/29 10:39:51;;;;;;;;;60.00;48.33;;;;;;;;5103299;27;8913;-72
2023/01/29 10:42:24;;;;;;;;;64.00;55.00;;;;;;;;5097616;27;8864;-73
2023/01/29 10:45:05;;;;;;;;;70.00;55.33;;;;;;;;5101224;27;8834;-72
2023/01/29 10:47:47;;;;;;;;;70.00;53.00;;;;;;;;5097902;27;8844;-73
2023/01/29 10:50:25;;;;;;;;;69.33;56.00;;;;;;;;5103700;27;11541;-74
2023/01/29 10:53:09;;;;;;;;;67.33;52.00;;;;;;;;5102171;27;11550;-74
2023/01/29 10:55:57;;;;;;;;;66.00;53.00;;;;;;;;5100723;27;11550;-74
2023/01/29 10:58:33;;;;;;;;;53.33;45.00;;;;;;;;5104065;27;11582;-74
2023/01/29 11:01:01;;;;;;;;;67.00;53.67;;;;;;;;5100116;27;12442;-74
2023/01/29 11:03:31;;;;;;;;;69.67;54.67;;;;;;;;5073691;28;11560;-74
2023/01/29 11:06:10;;;;;;;;;70.67;57.67;;;;;;;;5099317;27;11582;-74
2023/01/29 11:08:47;;;;;;;;;72.33;56.00;;;;;;;;5083722;28;12856;-74
2023/01/29 11:11:17;;;;;;;;;65.00;52.67;;;;;;;;5084871;28;8860;-73
2023/01/29 11:13:49;;;;;;;;;66.00;55.67;;;;;;;;5087490;28;11559;-73
2023/01/29 11:16:16;;;;;;;;;64.67;51.33;;;;;;;;5098465;28;8866;-72
2023/01/29 11:18:58;;;;;;;;;65.00;52.33;;;;;;;;5102663;27;11555;-73
2023/01/29 11:21:27;;;;;;;;;64.67;54.33;;;;;;;;5102962;27;11528;-72
2023/01/29 11:24:11;;;;;;;;;63.67;51.67;;;;;;;;5108933;27;11539;-72
2023/01/29 11:26:42;;;;;;;;;67.00;52.50;;;;;;;;5098084;27;12370;-74
2023/01/29 11:29:38;;;;;;;;;60.33;51.00;;;;;;;;5104922;27;11653;-72
2023/01/29 11:32:07;;;;;;;;;68.67;52.33;;;;;;;;5094277;27;11454;-72
2023/01/29 11:34:35;;;;;;;;;60.33;50.00;;;;;;;;5102288;27;11650;-72
2023/01/29 11:37:03;;;;;;;;;61.33;50.33;;;;;;;;5098502;27;11617;-71
2023/01/29 11:39:33;;;;;;;;;67.00;48.33;;;;;;;;5103268;27;11506;-72
2023/01/29 11:42:02;;;;;;;;;67.67;52.00;;;;;;;;5083371;28;11587;-73
2023/01/29 11:44:32;;;;;;;;;64.67;54.33;;;;;;;;5101507;27;11739;-73
2023/01/29 11:47:17;;;;;;;;;64.25;48.75;;;;;;;;5095638;27;11538;-73
2023/01/29 11:49:49;;;;;;;;;63.25;51.50;;;;;;;;5082693;28;11666;-74
2023/01/29 11:52:19;;;;;;;;;56.75;48.50;;;;;;;;5103893;27;11560;-74
2023/01/29 11:54:51;;;;;;;;;59.75;47.75;;;;;;;;5100381;27;11541;-75
2023/01/29 11:57:26;;;;;;;;;65.50;51.25;;;;;;;;5094905;27;11540;-72
2023/01/29 11:59:57;;;;;;;;;62.75;50.00;;;;;;;;5086379;28;11548;-74
2023/01/29 12:02:29;;;;;;;;;61.50;49.00;;;;;;;;5078521;28;12214;-75
2023/01/29 12:04:59;;;;;;;;;58.75;49.50;;;;;;;;5101963;27;11662;-75
2023/01/29 12:07:27;;;;;;;;;58.00;48.25;;;;;;;;5079083;27;11456;-77
2023/01/29 12:09:58;;;;;;;;;60.25;48.50;;;;;;;;5099161;27;11578;-75
2023/01/29 12:12:35;;;;;;;;;54.75;45.00;;;;;;;;5101313;27;11486;-75
2023/01/29 12:15:05;;;;;;;;;52.75;46.00;;;;;;;;5099718;27;11508;-73
2023/01/29 12:17:36;;;;;;;;;56.25;45.75;;;;;;;;5104823;27;11548;-74
2023/01/29 12:20:10;;;;;;;;;60.25;48.50;;;;;;;;5105247;27;11522;-74
2023/01/29 12:22:43;;;;;;;;;59.50;48.00;;;;;;;;5085132;27;11539;-73
2023/01/29 12:25:21;;;;;;;;;59.75;48.00;;;;;;;;5098141;27;11561;-73
2023/01/29 12:27:54;;;;;;;;;61.25;47.75;;;;;;;;5097490;27;11540;-74
2023/01/29 12:30:26;;;;;;;;;63.00;52.25;;;;;;;;5095763;27;11520;-71
2023/01/29 12:32:59;;;;;;;;;67.00;51.00;;;;;;;;5096264;27;11516;-74
2023/01/29 12:36:02;;;;;;;;;61.75;52.50;;;;;;;;5100101;27;11530;-73
2023/01/29 12:38:30;;;;;;;;;59.75;50.50;;;;;;;;5103713;27;11632;-72
2023/01/29 12:41:05;;;;;;;;;60.00;49.25;;;;;;;;5101265;27;11556;-73
2023/01/29 12:43:38;;;;;;;;;61.50;50.00;;;;;;;;5102922;27;11526;-72
2023/01/29 12:46:10;;;;;;;;;55.50;43.25;;;;;;;;5078747;28;11547;-71
2023/01/29 12:48:41;;;;;;;;;60.50;48.75;;;;;;;;5095485;27;11549;-72
2023/01/29 12:51:10;;;;;;;;;59.00;47.75;;;;;;;;5096601;28;11555;-71
2023/01/29 12:53:43;;;;;;;;;57.00;48.00;;;;;;;;5096209;27;11554;-71
2023/01/29 12:56:17;;;;;;;;;59.00;47.75;;;;;;;;5096053;28;11579;-71
2023/01/29 12:58:46;;;;;;;;;60.75;47.50;;;;;;;;5093903;27;11639;-71
2023/01/29 13:01:16;;;;;;;;;59.00;47.75;;;;;;;;5097855;28;11544;-70
2023/01/29 13:03:50;;;;;;;;;54.00;47.00;;;;;;;;5104890;27;12287;-72
2023/01/29 13:06:19;;;;;;;;;58.50;47.00;;;;;;;;5082255;28;12136;-74
2023/01/29 13:08:52;;;;;;;;;64.50;52.75;;;;;;;;5098470;28;12310;-72
2023/01/29 13:11:24;;;;;;;;;59.25;50.50;;;;;;;;5075124;28;11667;-77
2023/01/29 13:13:55;;;;;;;;;56.50;47.00;;;;;;;;5082950;27;12056;-71
2023/01/29 13:16:26;;;;;;;;;62.00;51.75;;;;;;;;5097335;27;11576;-73
2023/01/29 13:18:56;;;;;;;;;55.25;43.50;;;;;;;;5097770;27;12299;-73
2023/01/29 13:21:26;;;;;;;;;56.50;46.75;;;;;;;;5098952;28;12366;-77
2023/01/29 13:23:57;;;;;;;;;51.00;42.50;;;;;;;;5098758;28;11489;-75
2023/01/29 13:26:27;;;;;;;;;52.75;43.25;;;;;;;;5099721;28;11579;-75
2023/01/29 13:28:55;;;;;;;;;48.00;40.75;;;;;;;;5076012;28;11538;-73
2023/01/29 13:31:30;;;;;;;;;47.75;41.75;;;;;;;;5091646;27;11476;-74
2023/01/29 13:34:06;;;;;;;;;45.25;41.25;;;;;;;;5097244;27;11549;-73
2023/01/29 13:36:34;;;;;;;;;47.50;38.00;;;;;;;;5099316;27;11616;-74
2023/01/29 13:39:04;;;;;;;;;47.25;40.75;;;;;;;;5094780;27;11504;-73
2023/01/29 13:41:35;;;;;;;;;48.00;40.50;;;;;;;;5097046;28;11566;-73
2023/01/29 13:44:03;;;;;;;;;52.75;42.25;;;;;;;;5094957;28;12307;-73
2023/01/29 13:46:32;;;;;;;;;49.00;41.00;;;;;;;;5080556;27;11487;-72
2023/01/29 13:49:03;;;;;;;;;34.75;34.75;;;;;;;;5098212;28;11511;-73
2023/01/29 13:51:35;;;;;;;;;42.25;35.00;;;;;;;;5096676;28;11674;-73
2023/01/29 13:54:05;;;;;;;;;40.50;37.25;;;;;;;;5097064;27;11532;-73
2023/01/29 13:56:50;;;;;;;;;41.50;37.00;;;;;;;;5097670;28;11742;-73
2023/01/29 13:59:25;;;;;;;;;49.00;39.50;;;;;;;;5098769;28;12197;-74
2023/01/29 14:02:03;;;;;;;;;41.25;37.50;;;;;;;;5098168;27;11498;-73
2023/01/29 14:04:32;;;;;;;;;42.50;39.25;;;;;;;;5102814;27;11559;-73
2023/01/29 14:07:01;;;;;;;;;38.25;37.00;;;;;;;;5103768;27;11654;-73
2023/01/29 14:10:04;;;;;;;;;44.75;40.00;;;;;;;;5100367;27;11522;-73
2023/01/29 14:13:23;;;;;;;;;47.00;39.75;;;;;;;;5103412;27;11524;-74
2023/01/29 14:16:33;;;;;;;;;43.25;38.75;;;;;;;;5103512;27;11515;-74
2023/01/29 14:19:02;;;;;;;;;51.75;43.75;;;;;;;;5100890;27;11502;-74
2023/01/29 14:21:31;;;;;;;;;47.25;39.75;;;;;;;;5103125;27;11534;-74
2023/01/29 14:24:07;;;;;;;;;44.75;37.00;;;;;;;;5100953;27;11526;-73
2023/01/29 14:26:46;;;;;;;;;40.25;33.00;;;;;;;;5096519;27;11550;-73
2023/01/29 14:29:23;;;;;;;;;26.75;25.25;;;;;;;;5096294;27;11574;-74
2023/01/29 14:31:53;;;;;;;;;37.25;31.25;;;;;;;;5098567;27;11496;-74
2023/01/29 14:34:25;;;;;;;;;36.00;27.50;;;;;;;;5102283;27;11499;-74
2023/01/29 14:36:55;;;;;;;;;31.00;26.50;;;;;;;;5100594;27;11542;-73
2023/01/29 14:39:33;;;;;;;;;24.75;22.25;;;;;;;;5094182;28;11643;-74
2023/01/29 14:42:03;;;;;;;;;34.25;29.00;;;;;;;;5101204;27;11541;-75
2023/01/29 14:44:59;;;;;;;;;36.25;28.00;;;;;;;;5087903;27;11528;-74
2023/01/29 14:47:53;;;;;;;;;23.75;22.75;;;;;;;;5095940;27;11566;-74
2023/01/29 14:50:42;;;;;;;;;26.00;26.00;;;;;;;;5089327;28;11492;-74
2023/01/29 14:53:15;;;;;;;;;24.00;20.75;;;;;;;;5104743;27;11514;-73
2023/01/29 14:55:45;;;;;;;;;25.75;24.25;;;;;;;;5096537;27;11543;-74
2023/01/29 14:58:16;;;;;;;;;18.50;18.50;;;;;;;;5099733;27;12385;-72
2023/01/29 15:00:46;;;;;;;;;8.75;7.50;;;;;;;;5085216;28;11520;-72
2023/01/29 15:03:17;;;;;;;;;23.00;20.75;;;;;;;;5101009;27;11443;-73
2023/01/29 15:05:45;;;;;;;;;14.75;14.75;;;;;;;;5099017;27;11580;-75
2023/01/29 15:08:18;;;;;;;;;22.25;17.25;;;;;;;;5103185;27;11506;-74
2023/01/29 15:11:32;;;;;;;;;21.00;17.75;;;;;;;;5100115;27;11512;-74
2023/01/29 15:13:44;;;;;;;;;21.00;17.50;;;;;;;;5098048;27;11514;-75
2023/01/29 15:16:16;;;;;;;;;21.75;20.00;;;;;;;;5101509;27;11556;-74
2023/01/29 15:18:46;;;;;;;;;19.50;18.75;;;;;;;;5101589;27;11624;-73
2023/01/29 15:21:14;;;;;;;;;17.75;17.75;;;;;;;;5096885;27;11555;-72
2023/01/29 15:23:43;;;;;;;;;13.50;13.50;;;;;;;;5084469;28;11512;-73